sensor_id;sensor_type;location;lat;lon;timestamp;P1;durP1;ratioP1;P2;durP2;ratioP2
37787;SDS011;23627;53.302;-6.362;2022-11-23T00:00:55;1.77;;;0.90;;
37787;SDS011;23627;53.302;-6.362;2022-11-23T00:03:21;1.52;;;0.75;;
37787;SDS011;23627;53.302;-6.362;2022-11-23T00:05:47;1.95;;;0.65;;
37787;SDS011;23627;53.302;-6.362;2022-11-23T00:08:13;2.03;;;0.60;;
37787;SDS011;23627;53.302;-6.362;2022-11-23T00:10:38;1.90;;;0.70;;
37787;SDS011;23627;53.302;-6.362;2022-11-23T00:13:04;2.47;;;0.80;;
37787;SDS011;23627;53.302;-6.362;2022-11-23T00:15:30;1.70;;;0.68;;
37787;SDS011;23627;53.302;-6.362;2022-11-23T00:17:56;2.53;;;0.70;;
37787;SDS011;23627;53.302;-6.362;2022-11-23T00:20:24;1.95;;;0.70;;
37787;SDS011;23627;53.302;-6.362;2022-11-23T00:22:49;2.88;;;0.93;;
37787;SDS011;23627;53.302;-6.362;2022-11-23T00:25:15;1.52;;;0.60;;
37787;SDS011;23627;53.302;-6.362;2022-11-23T00:27:41;5.75;;;0.82;;
37787;SDS011;23627;53.302;-6.362;2022-11-23T00:30:07;2.08;;;0.60;;
37787;SDS011;23627;53.302;-6.362;2022-11-23T00:32:33;2.45;;;0.70;;
37787;SDS011;23627;53.302;-6.362;2022-11-23T00:34:59;2.58;;;0.57;;
37787;SDS011;23627;53.302;-6.362;2022-11-23T00:37:24;1.88;;;0.60;;
37787;SDS011;23627;53.302;-6.362;2022-11-23T00:39:50;1.50;;;0.40;;
37787;SDS011;23627;53.302;-6.362;2022-11-23T00:42:16;3.03;;;0.80;;
37787;SDS011;23627;53.302;-6.362;2022-11-23T00:44:41;2.53;;;0.60;;
37787;SDS011;23627;53.302;-6.362;2022-11-23T00:47:07;1.77;;;0.40;;
37787;SDS011;23627;53.302;-6.362;2022-11-23T00:49:33;3.03;;;0.65;;
37787;SDS011;23627;53.302;-6.362;2022-11-23T00:51:58;1.92;;;0.43;;
37787;SDS011;23627;53.302;-6.362;2022-11-23T00:54:24;1.45;;;0.43;;
37787;SDS011;23627;53.302;-6.362;2022-11-23T00:56:50;1.73;;;0.40;;
37787;SDS011;23627;53.302;-6.362;2022-11-23T00:59:15;1.88;;;0.50;;
37787;SDS011;23627;53.302;-6.362;2022-11-23T01:01:41;5.00;;;0.60;;
37787;SDS011;23627;53.302;-6.362;2022-11-23T01:04:07;1.90;;;0.40;;
37787;SDS011;23627;53.302;-6.362;2022-11-23T01:06:34;4.25;;;0.55;;
37787;SDS011;23627;53.302;-6.362;2022-11-23T01:09:06;2.80;;;0.57;;
37787;SDS011;23627;53.302;-6.362;2022-11-23T01:11:42;2.85;;;0.50;;
37787;SDS011;23627;53.302;-6.362;2022-11-23T01:14:08;3.28;;;0.38;;
37787;SDS011;23627;53.302;-6.362;2022-11-23T01:16:35;2.85;;;0.50;;
37787;SDS011;23627;53.302;-6.362;2022-11-23T01:19:07;2.00;;;0.32;;
37787;SDS011;23627;53.302;-6.362;2022-11-23T01:21:41;3.17;;;0.50;;
37787;SDS011;23627;53.302;-6.362;2022-11-23T01:24:12;4.55;;;0.63;;
37787;SDS011;23627;53.302;-6.362;2022-11-23T01:26:40;2.63;;;0.50;;
37787;SDS011;23627;53.302;-6.362;2022-11-23T01:29:06;3.88;;;0.40;;
37787;SDS011;23627;53.302;-6.362;2022-11-23T01:31:32;4.20;;;0.40;;
37787;SDS011;23627;53.302;-6.362;2022-11-23T01:33:59;2.65;;;0.35;;
37787;SDS011;23627;53.302;-6.362;2022-11-23T01:36:30;3.63;;;0.50;;
37787;SDS011;23627;53.302;-6.362;2022-11-23T01:38:57;2.65;;;0.40;;
37787;SDS011;23627;53.302;-6.362;2022-11-23T01:41:26;2.47;;;0.40;;
37787;SDS011;23627;53.302;-6.362;2022-11-23T01:43:56;6.63;;;0.80;;
37787;SDS011;23627;53.302;-6.362;2022-11-23T01:46:22;5.20;;;0.63;;
37787;SDS011;23627;53.302;-6.362;2022-11-23T01:48:54;2.58;;;0.40;;
37787;SDS011;23627;53.302;-6.362;2022-11-23T01:51:22;3.15;;;0.50;;
37787;SDS011;23627;53.302;-6.362;2022-11-23T01:54:06;3.78;;;0.60;;
37787;SDS011;23627;53.302;-6.362;2022-11-23T01:56:41;4.87;;;0.63;;
37787;SDS011;23627;53.302;-6.362;2022-11-23T01:59:12;1.88;;;0.35;;
37787;SDS011;23627;53.302;-6.362;2022-11-23T02:01:40;2.63;;;0.45;;
37787;SDS011;23627;53.302;-6.362;2022-11-23T02:04:07;4.35;;;0.40;;
37787;SDS011;23627;53.302;-6.362;2022-11-23T02:06:38;2.00;;;0.35;;
37787;SDS011;23627;53.302;-6.362;2022-11-23T02:09:05;3.15;;;0.60;;
37787;SDS011;23627;53.302;-6.362;2022-11-23T02:11:31;2.17;;;0.43;;
37787;SDS011;23627;53.302;-6.362;2022-11-23T02:13:57;1.88;;;0.40;;
37787;SDS011;23627;53.302;-6.362;2022-11-23T02:16:24;1.55;;;0.30;;
37787;SDS011;23627;53.302;-6.362;2022-11-23T02:18:50;2.65;;;0.30;;
37787;SDS011;23627;53.302;-6.362;2022-11-23T02:21:17;2.40;;;0.30;;
37787;SDS011;23627;53.302;-6.362;2022-11-23T02:26:22;0.60;;;0.20;;
37787;SDS011;23627;53.302;-6.362;2022-11-23T02:31:19;0.20;;;0.10;;
37787;SDS011;23627;53.302;-6.362;2022-11-23T02:33:44;0.65;;;0.20;;
37787;SDS011;23627;53.302;-6.362;2022-11-23T02:41:49;0.40;;;0.10;;
37787;SDS011;23627;53.302;-6.362;2022-11-23T02:47:20;1.33;;;0.28;;
37787;SDS011;23627;53.302;-6.362;2022-11-23T02:49:46;1.02;;;0.10;;
37787;SDS011;23627;53.302;-6.362;2022-11-23T02:52:13;1.20;;;0.20;;
37787;SDS011;23627;53.302;-6.362;2022-11-23T02:54:40;0.93;;;0.10;;
37787;SDS011;23627;53.302;-6.362;2022-11-23T02:57:06;0.13;;;0.03;;
37787;SDS011;23627;53.302;-6.362;2022-11-23T02:59:32;0.43;;;0.10;;
37787;SDS011;23627;53.302;-6.362;2022-11-23T03:01:58;0.15;;;0.00;;
37787;SDS011;23627;53.302;-6.362;2022-11-23T03:04:25;0.28;;;0.10;;
37787;SDS011;23627;53.302;-6.362;2022-11-23T03:06:51;1.23;;;0.13;;
37787;SDS011;23627;53.302;-6.362;2022-11-23T03:09:16;0.10;;;0.03;;
37787;SDS011;23627;53.302;-6.362;2022-11-23T03:11:42;0.35;;;0.15;;
37787;SDS011;23627;53.302;-6.362;2022-11-23T03:14:08;0.47;;;0.10;;
37787;SDS011;23627;53.302;-6.362;2022-11-23T03:16:34;0.75;;;0.03;;
37787;SDS011;23627;53.302;-6.362;2022-11-23T03:18:59;0.47;;;0.10;;
37787;SDS011;23627;53.302;-6.362;2022-11-23T03:21:26;0.30;;;0.00;;
37787;SDS011;23627;53.302;-6.362;2022-11-23T03:23:51;0.35;;;0.10;;
37787;SDS011;23627;53.302;-6.362;2022-11-23T03:26:17;0.60;;;0.10;;
37787;SDS011;23627;53.302;-6.362;2022-11-23T03:28:43;1.17;;;0.00;;
37787;SDS011;23627;53.302;-6.362;2022-11-23T03:31:08;0.50;;;0.00;;
37787;SDS011;23627;53.302;-6.362;2022-11-23T03:33:34;0.57;;;0.10;;
37787;SDS011;23627;53.302;-6.362;2022-11-23T03:36:00;0.22;;;0.08;;
37787;SDS011;23627;53.302;-6.362;2022-11-23T03:38:26;0.90;;;0.10;;
37787;SDS011;23627;53.302;-6.362;2022-11-23T03:40:52;0.88;;;0.10;;
37787;SDS011;23627;53.302;-6.362;2022-11-23T03:43:17;0.57;;;0.10;;
37787;SDS011;23627;53.302;-6.362;2022-11-23T03:45:43;0.40;;;0.10;;
37787;SDS011;23627;53.302;-6.362;2022-11-23T03:48:09;0.65;;;0.00;;
37787;SDS011;23627;53.302;-6.362;2022-11-23T03:50:35;0.73;;;0.10;;
37787;SDS011;23627;53.302;-6.362;2022-11-23T03:53:01;0.60;;;0.10;;
37787;SDS011;23627;53.302;-6.362;2022-11-23T03:55:27;0.93;;;0.00;;
37787;SDS011;23627;53.302;-6.362;2022-11-23T03:57:53;0.52;;;0.10;;
37787;SDS011;23627;53.302;-6.362;2022-11-23T04:00:23;0.95;;;0.10;;
37787;SDS011;23627;53.302;-6.362;2022-11-23T04:02:52;0.82;;;0.00;;
37787;SDS011;23627;53.302;-6.362;2022-11-23T04:05:18;0.90;;;0.03;;
37787;SDS011;23627;53.302;-6.362;2022-11-23T04:07:48;0.22;;;0.00;;
37787;SDS011;23627;53.302;-6.362;2022-11-23T04:10:14;2.58;;;0.15;;
37787;SDS011;23627;53.302;-6.362;2022-11-23T04:12:41;1.17;;;0.00;;
37787;SDS011;23627;53.302;-6.362;2022-11-23T04:15:07;0.28;;;0.03;;
37787;SDS011;23627;53.302;-6.362;2022-11-23T04:17:34;0.52;;;0.10;;
37787;SDS011;23627;53.302;-6.362;2022-11-23T04:20:00;0.55;;;0.10;;
37787;SDS011;23627;53.302;-6.362;2022-11-23T04:22:25;0.10;;;0.00;;
37787;SDS011;23627;53.302;-6.362;2022-11-23T04:24:51;0.52;;;0.50;;
37787;SDS011;23627;53.302;-6.362;2022-11-23T04:27:17;0.08;;;0.00;;
37787;SDS011;23627;53.302;-6.362;2022-11-23T04:29:42;0.40;;;0.00;;
37787;SDS011;23627;53.302;-6.362;2022-11-23T04:32:08;0.90;;;0.10;;
37787;SDS011;23627;53.302;-6.362;2022-11-23T04:34:34;0.75;;;0.10;;
37787;SDS011;23627;53.302;-6.362;2022-11-23T04:37:00;0.32;;;0.00;;
37787;SDS011;23627;53.302;-6.362;2022-11-23T04:39:25;0.70;;;0.10;;
37787;SDS011;23627;53.302;-6.362;2022-11-23T04:41:51;0.77;;;0.00;;
37787;SDS011;23627;53.302;-6.362;2022-11-23T04:44:17;0.10;;;0.00;;
37787;SDS011;23627;53.302;-6.362;2022-11-23T04:46:45;0.45;;;0.00;;
37787;SDS011;23627;53.302;-6.362;2022-11-23T04:49:11;0.05;;;0.00;;
37787;SDS011;23627;53.302;-6.362;2022-11-23T04:51:37;0.20;;;0.00;;
37787;SDS011;23627;53.302;-6.362;2022-11-23T04:54:02;0.22;;;0.00;;
37787;SDS011;23627;53.302;-6.362;2022-11-23T04:56:28;0.35;;;0.00;;
37787;SDS011;23627;53.302;-6.362;2022-11-23T04:58:54;0.55;;;0.10;;
37787;SDS011;23627;53.302;-6.362;2022-11-23T05:01:20;0.38;;;0.10;;
37787;SDS011;23627;53.302;-6.362;2022-11-23T05:03:45;0.28;;;0.10;;
37787;SDS011;23627;53.302;-6.362;2022-11-23T05:06:11;0.95;;;0.10;;
37787;SDS011;23627;53.302;-6.362;2022-11-23T05:08:37;2.38;;;0.10;;
37787;SDS011;23627;53.302;-6.362;2022-11-23T05:11:02;0.80;;;0.10;;
37787;SDS011;23627;53.302;-6.362;2022-11-23T05:13:28;0.68;;;0.10;;
37787;SDS011;23627;53.302;-6.362;2022-11-23T05:15:54;1.08;;;0.20;;
37787;SDS011;23627;53.302;-6.362;2022-11-23T05:18:20;1.55;;;0.20;;
37787;SDS011;23627;53.302;-6.362;2022-11-23T05:20:45;2.85;;;0.20;;
37787;SDS011;23627;53.302;-6.362;2022-11-23T05:23:11;1.63;;;0.28;;
37787;SDS011;23627;53.302;-6.362;2022-11-23T05:25:37;2.50;;;0.30;;
37787;SDS011;23627;53.302;-6.362;2022-11-23T05:28:03;2.42;;;0.30;;
37787;SDS011;23627;53.302;-6.362;2022-11-23T05:30:29;1.48;;;0.30;;
37787;SDS011;23627;53.302;-6.362;2022-11-23T05:32:59;2.33;;;0.30;;
37787;SDS011;23627;53.302;-6.362;2022-11-23T05:35:26;3.85;;;0.47;;
37787;SDS011;23627;53.302;-6.362;2022-11-23T05:37:52;4.28;;;0.50;;
37787;SDS011;23627;53.302;-6.362;2022-11-23T05:40:17;2.05;;;0.43;;
37787;SDS011;23627;53.302;-6.362;2022-11-23T05:42:43;3.40;;;0.50;;
37787;SDS011;23627;53.302;-6.362;2022-11-23T05:45:09;2.90;;;0.50;;
37787;SDS011;23627;53.302;-6.362;2022-11-23T05:47:35;3.65;;;0.40;;
37787;SDS011;23627;53.302;-6.362;2022-11-23T05:50:00;5.85;;;0.47;;
37787;SDS011;23627;53.302;-6.362;2022-11-23T05:52:26;3.35;;;0.50;;
37787;SDS011;23627;53.302;-6.362;2022-11-23T05:54:52;2.22;;;0.30;;
37787;SDS011;23627;53.302;-6.362;2022-11-23T05:57:18;3.92;;;0.40;;
37787;SDS011;23627;53.302;-6.362;2022-11-23T05:59:44;4.00;;;0.47;;
37787;SDS011;23627;53.302;-6.362;2022-11-23T06:02:10;3.65;;;0.50;;
37787;SDS011;23627;53.302;-6.362;2022-11-23T06:04:35;3.50;;;0.40;;
37787;SDS011;23627;53.302;-6.362;2022-11-23T06:07:01;3.63;;;0.50;;
37787;SDS011;23627;53.302;-6.362;2022-11-23T06:09:27;2.45;;;0.32;;
37787;SDS011;23627;53.302;-6.362;2022-11-23T06:11:53;3.97;;;0.43;;
37787;SDS011;23627;53.302;-6.362;2022-11-23T06:14:19;1.33;;;0.30;;
37787;SDS011;23627;53.302;-6.362;2022-11-23T06:16:45;2.33;;;0.25;;
37787;SDS011;23627;53.302;-6.362;2022-11-23T06:19:11;3.78;;;0.60;;
37787;SDS011;23627;53.302;-6.362;2022-11-23T06:21:36;3.38;;;0.50;;
37787;SDS011;23627;53.302;-6.362;2022-11-23T06:24:02;5.30;;;0.80;;
37787;SDS011;23627;53.302;-6.362;2022-11-23T06:26:28;3.75;;;0.50;;
37787;SDS011;23627;53.302;-6.362;2022-11-23T06:28:54;1.38;;;0.30;;
37787;SDS011;23627;53.302;-6.362;2022-11-23T06:31:20;3.45;;;0.30;;
37787;SDS011;23627;53.302;-6.362;2022-11-23T06:33:45;2.53;;;0.30;;
37787;SDS011;23627;53.302;-6.362;2022-11-23T06:36:11;4.57;;;0.85;;
37787;SDS011;23627;53.302;-6.362;2022-11-23T06:38:37;7.22;;;0.98;;
37787;SDS011;23627;53.302;-6.362;2022-11-23T06:41:03;4.35;;;0.57;;
37787;SDS011;23627;53.302;-6.362;2022-11-23T06:46:51;5.35;;;0.60;;
37787;SDS011;23627;53.302;-6.362;2022-11-23T06:49:16;8.32;;;1.30;;
37787;SDS011;23627;53.302;-6.362;2022-11-23T06:51:44;4.72;;;0.60;;
37787;SDS011;23627;53.302;-6.362;2022-11-23T06:54:10;3.28;;;0.65;;
37787;SDS011;23627;53.302;-6.362;2022-11-23T06:56:36;3.95;;;0.70;;
37787;SDS011;23627;53.302;-6.362;2022-11-23T06:59:02;6.60;;;0.90;;
37787;SDS011;23627;53.302;-6.362;2022-11-23T07:01:28;5.80;;;0.80;;
37787;SDS011;23627;53.302;-6.362;2022-11-23T07:03:54;4.47;;;0.85;;
37787;SDS011;23627;53.302;-6.362;2022-11-23T07:06:20;5.15;;;1.20;;
37787;SDS011;23627;53.302;-6.362;2022-11-23T07:08:46;8.25;;;1.23;;
37787;SDS011;23627;53.302;-6.362;2022-11-23T07:11:12;6.57;;;0.95;;
37787;SDS011;23627;53.302;-6.362;2022-11-23T07:13:38;5.60;;;0.98;;
37787;SDS011;23627;53.302;-6.362;2022-11-23T07:16:04;8.38;;;0.90;;
37787;SDS011;23627;53.302;-6.362;2022-11-23T07:18:31;6.03;;;1.20;;
37787;SDS011;23627;53.302;-6.362;2022-11-23T07:20:57;4.97;;;0.70;;
37787;SDS011;23627;53.302;-6.362;2022-11-23T07:23:23;8.90;;;1.08;;
37787;SDS011;23627;53.302;-6.362;2022-11-23T07:25:49;8.60;;;1.10;;
37787;SDS011;23627;53.302;-6.362;2022-11-23T07:28:15;7.93;;;0.90;;
37787;SDS011;23627;53.302;-6.362;2022-11-23T07:30:41;6.30;;;1.20;;
37787;SDS011;23627;53.302;-6.362;2022-11-23T07:33:08;9.55;;;0.95;;
37787;SDS011;23627;53.302;-6.362;2022-11-23T07:35:41;5.80;;;0.90;;
37787;SDS011;23627;53.302;-6.362;2022-11-23T07:38:09;10.95;;;1.52;;
37787;SDS011;23627;53.302;-6.362;2022-11-23T07:40:41;9.43;;;1.10;;
37787;SDS011;23627;53.302;-6.362;2022-11-23T07:43:07;7.40;;;0.90;;
37787;SDS011;23627;53.302;-6.362;2022-11-23T07:45:34;8.88;;;1.15;;
37787;SDS011;23627;53.302;-6.362;2022-11-23T07:48:02;6.75;;;0.98;;
37787;SDS011;23627;53.302;-6.362;2022-11-23T07:50:29;5.47;;;1.15;;
37787;SDS011;23627;53.302;-6.362;2022-11-23T07:52:56;7.53;;;1.08;;
37787;SDS011;23627;53.302;-6.362;2022-11-23T07:55:22;7.10;;;1.60;;
37787;SDS011;23627;53.302;-6.362;2022-11-23T07:57:51;5.65;;;1.20;;
37787;SDS011;23627;53.302;-6.362;2022-11-23T08:03:09;4.78;;;0.98;;
37787;SDS011;23627;53.302;-6.362;2022-11-23T08:05:39;6.72;;;1.45;;
37787;SDS011;23627;53.302;-6.362;2022-11-23T08:08:05;8.07;;;1.13;;
37787;SDS011;23627;53.302;-6.362;2022-11-23T08:10:30;4.55;;;1.20;;
37787;SDS011;23627;53.302;-6.362;2022-11-23T08:12:57;6.13;;;1.17;;
37787;SDS011;23627;53.302;-6.362;2022-11-23T08:15:24;6.70;;;1.20;;
37787;SDS011;23627;53.302;-6.362;2022-11-23T08:17:58;7.18;;;1.42;;
37787;SDS011;23627;53.302;-6.362;2022-11-23T08:20:27;7.75;;;1.10;;
37787;SDS011;23627;53.302;-6.362;2022-11-23T08:22:53;7.30;;;1.13;;
37787;SDS011;23627;53.302;-6.362;2022-11-23T08:25:26;7.15;;;1.27;;
37787;SDS011;23627;53.302;-6.362;2022-11-23T08:28:02;6.53;;;1.23;;
37787;SDS011;23627;53.302;-6.362;2022-11-23T08:30:29;10.82;;;1.50;;
37787;SDS011;23627;53.302;-6.362;2022-11-23T08:32:56;9.48;;;1.38;;
37787;SDS011;23627;53.302;-6.362;2022-11-23T08:35:22;8.55;;;1.67;;
37787;SDS011;23627;53.302;-6.362;2022-11-23T08:37:48;8.10;;;1.33;;
37787;SDS011;23627;53.302;-6.362;2022-11-23T08:40:13;7.95;;;1.23;;
37787;SDS011;23627;53.302;-6.362;2022-11-23T08:42:40;6.43;;;1.33;;
37787;SDS011;23627;53.302;-6.362;2022-11-23T08:45:06;8.32;;;1.63;;
37787;SDS011;23627;53.302;-6.362;2022-11-23T08:47:32;7.15;;;1.13;;
37787;SDS011;23627;53.302;-6.362;2022-11-23T08:49:58;7.50;;;1.30;;
37787;SDS011;23627;53.302;-6.362;2022-11-23T08:52:24;9.50;;;1.50;;
37787;SDS011;23627;53.302;-6.362;2022-11-23T08:54:50;9.68;;;1.25;;
37787;SDS011;23627;53.302;-6.362;2022-11-23T08:57:16;6.93;;;1.20;;
37787;SDS011;23627;53.302;-6.362;2022-11-23T08:59:42;7.57;;;1.10;;
37787;SDS011;23627;53.302;-6.362;2022-11-23T09:02:11;8.88;;;1.48;;
37787;SDS011;23627;53.302;-6.362;2022-11-23T09:04:40;7.70;;;1.20;;
37787;SDS011;23627;53.302;-6.362;2022-11-23T09:07:07;10.40;;;1.33;;
37787;SDS011;23627;53.302;-6.362;2022-11-23T09:09:33;6.88;;;1.75;;
37787;SDS011;23627;53.302;-6.362;2022-11-23T09:11:59;9.13;;;1.30;;
37787;SDS011;23627;53.302;-6.362;2022-11-23T09:14:24;8.55;;;1.13;;
37787;SDS011;23627;53.302;-6.362;2022-11-23T09:16:52;8.77;;;1.33;;
37787;SDS011;23627;53.302;-6.362;2022-11-23T09:19:20;5.82;;;1.30;;
37787;SDS011;23627;53.302;-6.362;2022-11-23T09:21:47;25.38;;;2.75;;
37787;SDS011;23627;53.302;-6.362;2022-11-23T09:24:13;25.92;;;3.63;;
37787;SDS011;23627;53.302;-6.362;2022-11-23T09:26:38;22.92;;;2.65;;
37787;SDS011;23627;53.302;-6.362;2022-11-23T09:29:05;19.08;;;2.40;;
37787;SDS011;23627;53.302;-6.362;2022-11-23T09:31:32;15.57;;;2.30;;
37787;SDS011;23627;53.302;-6.362;2022-11-23T09:33:58;15.77;;;2.25;;
37787;SDS011;23627;53.302;-6.362;2022-11-23T09:36:24;10.27;;;2.03;;
37787;SDS011;23627;53.302;-6.362;2022-11-23T09:38:50;9.85;;;1.60;;
37787;SDS011;23627;53.302;-6.362;2022-11-23T09:41:31;12.07;;;1.75;;
37787;SDS011;23627;53.302;-6.362;2022-11-23T09:52:02;7.63;;;1.15;;
37787;SDS011;23627;53.302;-6.362;2022-11-23T09:54:34;5.10;;;1.00;;
37787;SDS011;23627;53.302;-6.362;2022-11-23T09:57:02;6.18;;;0.80;;
37787;SDS011;23627;53.302;-6.362;2022-11-23T09:59:32;6.30;;;1.10;;
37787;SDS011;23627;53.302;-6.362;2022-11-23T10:02:05;5.93;;;0.90;;
37787;SDS011;23627;53.302;-6.362;2022-11-23T10:04:46;7.72;;;1.20;;
37787;SDS011;23627;53.302;-6.362;2022-11-23T10:10:07;3.47;;;0.90;;
37787;SDS011;23627;53.302;-6.362;2022-11-23T10:15:23;5.97;;;0.82;;
37787;SDS011;23627;53.302;-6.362;2022-11-23T10:20:46;4.13;;;0.80;;
37787;SDS011;23627;53.302;-6.362;2022-11-23T10:26:15;5.13;;;0.73;;
37787;SDS011;23627;53.302;-6.362;2022-11-23T10:28:45;5.25;;;0.70;;
37787;SDS011;23627;53.302;-6.362;2022-11-23T10:31:19;4.43;;;0.75;;
37787;SDS011;23627;53.302;-6.362;2022-11-23T10:36:15;3.95;;;0.70;;
37787;SDS011;23627;53.302;-6.362;2022-11-23T10:38:41;6.57;;;0.88;;
37787;SDS011;23627;53.302;-6.362;2022-11-23T10:41:08;5.45;;;0.98;;
37787;SDS011;23627;53.302;-6.362;2022-11-23T10:48:52;5.68;;;0.98;;
37787;SDS011;23627;53.302;-6.362;2022-11-23T10:51:31;4.25;;;0.80;;
37787;SDS011;23627;53.302;-6.362;2022-11-23T10:54:02;6.28;;;1.40;;
37787;SDS011;23627;53.302;-6.362;2022-11-23T10:56:30;12.20;;;1.37;;
37787;SDS011;23627;53.302;-6.362;2022-11-23T10:58:57;5.47;;;1.23;;
37787;SDS011;23627;53.302;-6.362;2022-11-23T11:01:24;6.88;;;1.15;;
37787;SDS011;23627;53.302;-6.362;2022-11-23T11:04:01;9.90;;;1.40;;
37787;SDS011;23627;53.302;-6.362;2022-11-23T11:06:31;8.38;;;0.80;;
37787;SDS011;23627;53.302;-6.362;2022-11-23T11:09:00;6.72;;;1.20;;
37787;SDS011;23627;53.302;-6.362;2022-11-23T11:11:45;6.47;;;0.85;;
37787;SDS011;23627;53.302;-6.362;2022-11-23T11:14:17;5.07;;;1.10;;
37787;SDS011;23627;53.302;-6.362;2022-11-23T11:16:48;5.28;;;0.82;;
37787;SDS011;23627;53.302;-6.362;2022-11-23T11:19:26;5.57;;;0.80;;
37787;SDS011;23627;53.302;-6.362;2022-11-23T11:21:56;3.90;;;0.70;;
37787;SDS011;23627;53.302;-6.362;2022-11-23T11:24:36;3.63;;;0.65;;
37787;SDS011;23627;53.302;-6.362;2022-11-23T11:27:13;5.50;;;0.82;;
37787;SDS011;23627;53.302;-6.362;2022-11-23T11:34:54;19.20;;;1.63;;
37787;SDS011;23627;53.302;-6.362;2022-11-23T11:37:48;13.55;;;1.30;;
37787;SDS011;23627;53.302;-6.362;2022-11-23T11:42:58;6.78;;;0.93;;
37787;SDS011;23627;53.302;-6.362;2022-11-23T11:45:38;8.57;;;0.70;;
37787;SDS011;23627;53.302;-6.362;2022-11-23T11:51:05;7.70;;;0.90;;
37787;SDS011;23627;53.302;-6.362;2022-11-23T11:56:42;5.15;;;0.70;;
37787;SDS011;23627;53.302;-6.362;2022-11-23T12:05:10;4.90;;;0.73;;
37787;SDS011;23627;53.302;-6.362;2022-11-23T12:07:46;4.38;;;0.75;;
37787;SDS011;23627;53.302;-6.362;2022-11-23T12:10:16;3.00;;;0.60;;
37787;SDS011;23627;53.302;-6.362;2022-11-23T12:12:45;3.50;;;0.73;;
37787;SDS011;23627;53.302;-6.362;2022-11-23T12:15:16;6.05;;;1.02;;
37787;SDS011;23627;53.302;-6.362;2022-11-23T12:18:01;3.60;;;0.80;;
37787;SDS011;23627;53.302;-6.362;2022-11-23T12:23:42;2.85;;;0.57;;
37787;SDS011;23627;53.302;-6.362;2022-11-23T12:32:07;2.85;;;0.65;;
37787;SDS011;23627;53.302;-6.362;2022-11-23T12:59:52;4.90;;;0.88;;
37787;SDS011;23627;53.302;-6.362;2022-11-23T13:07:59;4.07;;;0.70;;
37787;SDS011;23627;53.302;-6.362;2022-11-23T13:19:06;4.03;;;0.85;;
37787;SDS011;23627;53.302;-6.362;2022-11-23T13:21:44;9.15;;;1.23;;
37787;SDS011;23627;53.302;-6.362;2022-11-23T13:24:24;3.85;;;1.20;;
37787;SDS011;23627;53.302;-6.362;2022-11-23T13:40:39;4.40;;;1.00;;
37787;SDS011;23627;53.302;-6.362;2022-11-23T13:43:23;5.60;;;0.90;;
37787;SDS011;23627;53.302;-6.362;2022-11-23T13:48:42;8.55;;;1.00;;
37787;SDS011;23627;53.302;-6.362;2022-11-23T13:51:09;4.13;;;0.82;;
37787;SDS011;23627;53.302;-6.362;2022-11-23T13:53:37;5.18;;;0.77;;
37787;SDS011;23627;53.302;-6.362;2022-11-23T13:56:22;5.03;;;1.35;;
37787;SDS011;23627;53.302;-6.362;2022-11-23T13:59:22;6.15;;;1.02;;
37787;SDS011;23627;53.302;-6.362;2022-11-23T14:04:34;7.10;;;1.50;;
37787;SDS011;23627;53.302;-6.362;2022-11-23T14:07:08;4.35;;;0.82;;
37787;SDS011;23627;53.302;-6.362;2022-11-23T14:10:01;3.28;;;0.77;;
37787;SDS011;23627;53.302;-6.362;2022-11-23T14:15:22;3.17;;;0.80;;
37787;SDS011;23627;53.302;-6.362;2022-11-23T14:18:18;4.70;;;1.20;;
37787;SDS011;23627;53.302;-6.362;2022-11-23T14:21:16;3.00;;;0.77;;
37787;SDS011;23627;53.302;-6.362;2022-11-23T14:26:48;4.15;;;0.55;;
37787;SDS011;23627;53.302;-6.362;2022-11-23T14:29:32;5.07;;;0.70;;
37787;SDS011;23627;53.302;-6.362;2022-11-23T14:32:20;4.55;;;0.90;;
37787;SDS011;23627;53.302;-6.362;2022-11-23T14:40:52;3.58;;;0.70;;
37787;SDS011;23627;53.302;-6.362;2022-11-23T14:43:26;5.55;;;1.00;;
37787;SDS011;23627;53.302;-6.362;2022-11-23T14:45:53;5.43;;;1.00;;
37787;SDS011;23627;53.302;-6.362;2022-11-23T14:48:30;4.47;;;0.90;;
37787;SDS011;23627;53.302;-6.362;2022-11-23T14:51:04;3.95;;;0.80;;
37787;SDS011;23627;53.302;-6.362;2022-11-23T14:53:38;4.65;;;1.00;;
37787;SDS011;23627;53.302;-6.362;2022-11-23T15:01:52;3.92;;;0.90;;
37787;SDS011;23627;53.302;-6.362;2022-11-23T15:04:27;4.75;;;0.80;;
37787;SDS011;23627;53.302;-6.362;2022-11-23T15:07:09;8.52;;;0.95;;
37787;SDS011;23627;53.302;-6.362;2022-11-23T15:12:25;7.00;;;1.33;;
37787;SDS011;23627;53.302;-6.362;2022-11-23T15:14:54;6.82;;;1.27;;
37787;SDS011;23627;53.302;-6.362;2022-11-23T15:17:24;7.13;;;1.30;;
37787;SDS011;23627;53.302;-6.362;2022-11-23T15:19:54;6.50;;;1.08;;
37787;SDS011;23627;53.302;-6.362;2022-11-23T15:22:24;5.75;;;1.08;;
37787;SDS011;23627;53.302;-6.362;2022-11-23T15:24:51;5.05;;;1.10;;
37787;SDS011;23627;53.302;-6.362;2022-11-23T15:27:21;6.32;;;1.17;;
37787;SDS011;23627;53.302;-6.362;2022-11-23T15:29:53;9.68;;;1.58;;
37787;SDS011;23627;53.302;-6.362;2022-11-23T15:32:22;12.98;;;1.90;;
37787;SDS011;23627;53.302;-6.362;2022-11-23T15:34:53;6.85;;;1.40;;
37787;SDS011;23627;53.302;-6.362;2022-11-23T15:37:24;6.47;;;1.50;;
37787;SDS011;23627;53.302;-6.362;2022-11-23T15:39:52;5.47;;;1.02;;
37787;SDS011;23627;53.302;-6.362;2022-11-23T15:42:21;5.70;;;1.10;;
37787;SDS011;23627;53.302;-6.362;2022-11-23T15:44:49;7.70;;;1.35;;
37787;SDS011;23627;53.302;-6.362;2022-11-23T15:47:19;9.05;;;1.48;;
37787;SDS011;23627;53.302;-6.362;2022-11-23T15:49:55;7.03;;;1.33;;
37787;SDS011;23627;53.302;-6.362;2022-11-23T15:52:28;7.93;;;1.40;;
37787;SDS011;23627;53.302;-6.362;2022-11-23T15:55:00;7.45;;;1.60;;
37787;SDS011;23627;53.302;-6.362;2022-11-23T15:57:28;10.00;;;1.38;;
37787;SDS011;23627;53.302;-6.362;2022-11-23T15:59:56;7.43;;;1.25;;
37787;SDS011;23627;53.302;-6.362;2022-11-23T16:02:25;8.52;;;1.98;;
37787;SDS011;23627;53.302;-6.362;2022-11-23T16:10:22;9.93;;;1.63;;
37787;SDS011;23627;53.302;-6.362;2022-11-23T16:13:31;5.50;;;1.13;;
37787;SDS011;23627;53.302;-6.362;2022-11-23T16:15:58;4.75;;;0.88;;
37787;SDS011;23627;53.302;-6.362;2022-11-23T16:18:27;7.22;;;1.15;;
37787;SDS011;23627;53.302;-6.362;2022-11-23T16:23:26;3.53;;;1.25;;
37787;SDS011;23627;53.302;-6.362;2022-11-23T16:26:01;2.25;;;0.60;;
37787;SDS011;23627;53.302;-6.362;2022-11-23T16:28:31;2.60;;;0.70;;
37787;SDS011;23627;53.302;-6.362;2022-11-23T16:30:59;4.93;;;0.90;;
37787;SDS011;23627;53.302;-6.362;2022-11-23T16:33:25;4.28;;;0.90;;
37787;SDS011;23627;53.302;-6.362;2022-11-23T16:35:54;4.13;;;0.90;;
37787;SDS011;23627;53.302;-6.362;2022-11-23T16:38:20;2.25;;;0.82;;
37787;SDS011;23627;53.302;-6.362;2022-11-23T16:40:47;2.78;;;1.00;;
37787;SDS011;23627;53.302;-6.362;2022-11-23T16:43:16;2.80;;;0.70;;
37787;SDS011;23627;53.302;-6.362;2022-11-23T16:45:46;3.17;;;0.67;;
37787;SDS011;23627;53.302;-6.362;2022-11-23T16:48:34;2.38;;;0.70;;
37787;SDS011;23627;53.302;-6.362;2022-11-23T16:51:05;2.10;;;0.77;;
37787;SDS011;23627;53.302;-6.362;2022-11-23T16:53:34;3.72;;;0.73;;
37787;SDS011;23627;53.302;-6.362;2022-11-23T16:56:01;2.50;;;0.80;;
37787;SDS011;23627;53.302;-6.362;2022-11-23T16:58:29;3.20;;;1.08;;
37787;SDS011;23627;53.302;-6.362;2022-11-23T17:00:58;2.97;;;0.90;;
37787;SDS011;23627;53.302;-6.362;2022-11-23T17:03:26;2.95;;;0.88;;
37787;SDS011;23627;53.302;-6.362;2022-11-23T17:05:51;4.22;;;1.13;;
37787;SDS011;23627;53.302;-6.362;2022-11-23T17:08:17;3.72;;;0.98;;
37787;SDS011;23627;53.302;-6.362;2022-11-23T17:10:43;2.80;;;0.88;;
37787;SDS011;23627;53.302;-6.362;2022-11-23T17:13:10;4.53;;;1.15;;
37787;SDS011;23627;53.302;-6.362;2022-11-23T17:15:40;4.05;;;1.42;;
37787;SDS011;23627;53.302;-6.362;2022-11-23T17:18:10;5.88;;;1.13;;
37787;SDS011;23627;53.302;-6.362;2022-11-23T17:20:38;4.97;;;1.00;;
37787;SDS011;23627;53.302;-6.362;2022-11-23T17:23:04;3.92;;;0.82;;
37787;SDS011;23627;53.302;-6.362;2022-11-23T17:25:31;6.65;;;1.50;;